TAF KWMC
KWMC 270520Z 2706/2806 VRB05KT P6SM SCT120 BKN200=
METAR KWMC
WC KWMC
WS KWMC
WV KWMC